GAF013 EDDW-EDDW

Flight info

Callsign GAF013
Flight time 1h 19m
Altitude 3000
Route WSN STAY1/0045 VFR
Aircraft DA42/L-SBDGRY/S

Departure

Time 2026-04-30 06:28
Airport Bremen Airport (EDDW)

Arrival

Time 2026-04-30 07:48
Airport Bremen Airport (EDDW)
Time Latitude Longitude Altitude Speed Heading
2026-04-30 06:05 53.05115 8.78715 13 ft 0 kts 318°
2026-04-30 06:21 53.05120 8.78732 14 ft 9 kts 165°
2026-04-30 06:22 53.05065 8.78671 12 ft 9 kts 226°
2026-04-30 06:22 53.05019 8.78599 12 ft 9 kts 155°
2026-04-30 06:22 53.04950 8.78654 12 ft 13 kts 179°
2026-04-30 06:22 53.04862 8.78698 12 ft 14 kts 120°
2026-04-30 06:23 53.04853 8.78859 11 ft 17 kts 88°
2026-04-30 06:23 53.04858 8.79079 13 ft 20 kts 90°
2026-04-30 06:23 53.04856 8.79260 16 ft 9 kts 120°
2026-04-30 06:23 53.04792 8.79295 14 ft 5 kts 180°
2026-04-30 06:24 53.04791 8.79295 14 ft 0 kts 181°
2026-04-30 06:26 53.04767 8.79297 14 ft 8 kts 178°
2026-04-30 06:27 53.04699 8.79270 13 ft 10 kts 259°
2026-04-30 06:27 53.04698 8.79254 13 ft 0 kts 270°
2026-04-30 06:27 53.04689 8.78887 16 ft 67 kts 268°
2026-04-30 06:28 53.04675 8.77885 118 ft 97 kts 266°
2026-04-30 06:28 53.04678 8.76764 443 ft 98 kts 270°
2026-04-30 06:28 53.04690 8.75604 763 ft 104 kts 262°
2026-04-30 06:28 53.04640 8.74387 1135 ft 104 kts 261°
2026-04-30 06:29 53.04595 8.73227 1577 ft 100 kts 260°
2026-04-30 06:29 53.04551 8.72051 1934 ft 103 kts 261°
2026-04-30 06:29 53.04550 8.70851 2292 ft 107 kts 282°
2026-04-30 06:29 53.04961 8.69841 2703 ft 107 kts 330°
2026-04-30 06:30 53.05388 8.69459 2980 ft 106 kts 340°
2026-04-30 06:30 53.06161 8.68865 3012 ft 137 kts 340°
2026-04-30 06:30 53.07445 8.67960 3004 ft 161 kts 351°
2026-04-30 06:30 53.08570 8.67978 3000 ft 163 kts 19°
2026-04-30 06:31 53.09284 8.68430 3008 ft 164 kts 29°
2026-04-30 06:31 53.10675 8.69459 3002 ft 166 kts 30°
2026-04-30 06:31 53.11729 8.70256 3002 ft 167 kts 30°
2026-04-30 06:31 53.12446 8.70795 3008 ft 168 kts 29°
2026-04-30 06:32 53.13518 8.71597 3009 ft 170 kts 29°
2026-04-30 06:32 53.14605 8.72407 2992 ft 172 kts 30°
2026-04-30 06:32 53.15679 8.73213 2995 ft 166 kts 29°
2026-04-30 06:32 53.16712 8.73970 2994 ft 163 kts 30°
2026-04-30 06:33 53.17738 8.74736 2991 ft 160 kts 29°
2026-04-30 06:33 53.18757 8.75492 2996 ft 161 kts 29°
2026-04-30 06:33 53.19778 8.76265 2994 ft 162 kts 30°
2026-04-30 06:33 53.20804 8.77030 2991 ft 161 kts 30°
2026-04-30 06:34 53.21823 8.77791 2986 ft 160 kts 30°
2026-04-30 06:34 53.22836 8.78553 2992 ft 159 kts 30°
2026-04-30 06:34 53.23845 8.79303 2996 ft 159 kts 29°
2026-04-30 06:34 53.24854 8.80058 2991 ft 159 kts 30°
2026-04-30 06:35 53.25851 8.80803 2990 ft 160 kts 30°
2026-04-30 06:35 53.26858 8.81565 2999 ft 159 kts 30°
2026-04-30 06:35 53.27869 8.82327 2997 ft 160 kts 29°
2026-04-30 06:35 53.28895 8.83097 2998 ft 162 kts 30°
2026-04-30 06:36 53.29929 8.83866 2989 ft 163 kts 30°
2026-04-30 06:36 53.30952 8.84645 2996 ft 161 kts 30°
2026-04-30 06:36 53.31977 8.85418 2988 ft 161 kts 29°
2026-04-30 06:36 53.33025 8.86070 2987 ft 163 kts 17°
2026-04-30 06:37 53.34164 8.86060 2984 ft 167 kts 352°
2026-04-30 06:37 53.35232 8.85254 2983 ft 171 kts 326°
2026-04-30 06:37 53.36010 8.83767 2985 ft 174 kts 302°
2026-04-30 06:37 53.36629 8.82029 2998 ft 175 kts 301°
2026-04-30 06:38 53.37247 8.80264 2984 ft 176 kts 300°
2026-04-30 06:38 53.37862 8.78508 2992 ft 174 kts 300°
2026-04-30 06:38 53.38465 8.76754 2992 ft 175 kts 300°
2026-04-30 06:38 53.39076 8.74974 2979 ft 175 kts 300°
2026-04-30 06:39 53.39691 8.73212 2992 ft 176 kts 300°
2026-04-30 06:39 53.40310 8.71441 2978 ft 175 kts 301°
2026-04-30 06:39 53.40927 8.69683 2978 ft 175 kts 301°
2026-04-30 06:39 53.41539 8.67924 2977 ft 175 kts 300°
2026-04-30 06:40 53.42147 8.66162 2975 ft 174 kts 300°
2026-04-30 06:40 53.42752 8.64408 2973 ft 174 kts 300°
2026-04-30 06:40 53.43350 8.62669 2976 ft 171 kts 301°
2026-04-30 06:40 53.43944 8.60976 2977 ft 170 kts 300°
2026-04-30 06:41 53.44542 8.59255 2975 ft 171 kts 300°
2026-04-30 06:41 53.45139 8.57528 2977 ft 170 kts 300°
2026-04-30 06:41 53.45732 8.55811 2976 ft 170 kts 300°
2026-04-30 06:41 53.46322 8.54098 2978 ft 169 kts 300°
2026-04-30 06:42 53.46912 8.52391 2978 ft 169 kts 300°
2026-04-30 06:42 53.47498 8.50685 2982 ft 169 kts 300°
2026-04-30 06:42 53.48087 8.48974 2976 ft 169 kts 300°
2026-04-30 06:42 53.48680 8.47265 2974 ft 169 kts 300°
2026-04-30 06:43 53.49268 8.45552 2984 ft 169 kts 300°
2026-04-30 06:43 53.49860 8.43834 2974 ft 170 kts 300°
2026-04-30 06:43 53.50449 8.42121 2973 ft 170 kts 301°
2026-04-30 06:43 53.51039 8.40414 2978 ft 171 kts 300°
2026-04-30 06:44 53.51634 8.38667 2977 ft 172 kts 300°
2026-04-30 06:44 53.52233 8.36922 2969 ft 172 kts 300°
2026-04-30 06:44 53.52825 8.35192 2999 ft 170 kts 300°
2026-04-30 06:44 53.53424 8.33460 2992 ft 172 kts 300°
2026-04-30 06:45 53.54016 8.31716 2993 ft 172 kts 300°
2026-04-30 06:45 53.54612 8.29972 2998 ft 172 kts 300°
2026-04-30 06:45 53.55206 8.28229 2998 ft 172 kts 300°
2026-04-30 06:45 53.55801 8.26483 2998 ft 172 kts 300°
2026-04-30 06:46 53.56397 8.24737 3000 ft 173 kts 300°
2026-04-30 06:46 53.56995 8.22991 2997 ft 172 kts 300°
2026-04-30 06:46 53.57593 8.21250 2998 ft 172 kts 300°
2026-04-30 06:46 53.58179 8.19529 2998 ft 172 kts 300°
2026-04-30 06:47 53.58774 8.17779 2998 ft 172 kts 300°
2026-04-30 06:47 53.59370 8.16026 2998 ft 172 kts 300°
2026-04-30 06:47 53.59965 8.14276 2997 ft 172 kts 300°
2026-04-30 06:47 53.60388 8.12408 2992 ft 171 kts 277°
2026-04-30 06:48 53.60320 8.10425 2993 ft 170 kts 256°
2026-04-30 06:48 53.60084 8.08483 2993 ft 170 kts 255°
2026-04-30 06:48 53.59839 8.06538 2989 ft 168 kts 254°
2026-04-30 06:48 53.59594 8.04635 2989 ft 165 kts 255°
2026-04-30 06:49 53.59358 8.02765 2989 ft 165 kts 255°
2026-04-30 06:49 53.59120 8.00885 2993 ft 164 kts 255°
2026-04-30 06:49 53.58888 7.99014 2990 ft 163 kts 255°
2026-04-30 06:49 53.58652 7.97150 2994 ft 163 kts 255°
2026-04-30 06:50 53.58417 7.95285 2994 ft 163 kts 255°
2026-04-30 06:50 53.58184 7.93425 2985 ft 160 kts 255°
2026-04-30 06:50 53.57952 7.91578 2820 ft 163 kts 255°
2026-04-30 06:50 53.57720 7.89712 2600 ft 162 kts 255°
2026-04-30 06:51 53.57487 7.87875 2383 ft 160 kts 254°
2026-04-30 06:51 53.57254 7.86057 2168 ft 158 kts 255°
2026-04-30 06:51 53.57033 7.84271 1937 ft 154 kts 254°
2026-04-30 06:51 53.56808 7.82521 1730 ft 153 kts 254°
2026-04-30 06:52 53.56585 7.80776 1515 ft 151 kts 253°
2026-04-30 06:52 53.56364 7.79073 1315 ft 147 kts 253°
2026-04-30 06:52 53.56314 7.77364 1127 ft 145 kts 257°
2026-04-30 06:52 53.56074 7.75756 953 ft 138 kts 249°
2026-04-30 06:53 53.55828 7.74350 876 ft 114 kts 250°
2026-04-30 06:53 53.55640 7.73135 746 ft 103 kts 251°
2026-04-30 06:53 53.55480 7.71997 594 ft 102 kts 252°
2026-04-30 06:53 53.55318 7.70855 377 ft 102 kts 252°
2026-04-30 06:54 53.55174 7.69694 232 ft 100 kts 253°
2026-04-30 06:54 53.55023 7.68559 71 ft 98 kts 254°
2026-04-30 06:54 53.54895 7.67588 30 ft 75 kts 257°
2026-04-30 06:54 53.54773 7.66555 184 ft 99 kts 256°
2026-04-30 06:55 53.54635 7.65455 633 ft 95 kts 252°
2026-04-30 06:55 53.54518 7.64370 1068 ft 95 kts 257°
2026-04-30 06:55 53.54526 7.63208 1403 ft 106 kts 285°
2026-04-30 06:55 53.54978 7.62222 1785 ft 109 kts 331°
2026-04-30 06:56 53.55692 7.61896 2199 ft 106 kts
2026-04-30 06:56 53.56425 7.61860 2566 ft 104 kts 17°
2026-04-30 06:56 53.57135 7.62056 2944 ft 104 kts 18°
2026-04-30 06:56 53.57943 7.62274 3011 ft 132 kts 15°
2026-04-30 06:57 53.58933 7.62508 3003 ft 155 kts 13°
2026-04-30 06:57 53.60008 7.62729 2988 ft 159 kts 12°
2026-04-30 06:57 53.61112 7.62946 2994 ft 161 kts 12°
2026-04-30 06:57 53.62227 7.63162 2995 ft 162 kts 12°
2026-04-30 06:58 53.63353 7.63384 2995 ft 163 kts 12°
2026-04-30 06:58 53.64477 7.63614 2996 ft 162 kts 13°
2026-04-30 06:58 53.65601 7.63850 2997 ft 163 kts 12°
2026-04-30 06:58 53.66714 7.64169 2993 ft 161 kts 27°
2026-04-30 06:59 53.67475 7.65389 2993 ft 149 kts 70°
2026-04-30 06:59 53.67553 7.67062 3002 ft 143 kts 99°
2026-04-30 06:59 53.67388 7.68717 3003 ft 143 kts 102°
2026-04-30 06:59 53.67204 7.70370 2991 ft 144 kts 103°
2026-04-30 07:00 53.66882 7.71955 2992 ft 143 kts 112°
2026-04-30 07:00 53.66503 7.73496 3008 ft 142 kts 113°
2026-04-30 07:00 53.66122 7.75033 2995 ft 143 kts 113°
2026-04-30 07:00 53.65743 7.76589 3005 ft 144 kts 113°
2026-04-30 07:01 53.65348 7.78166 2994 ft 148 kts 113°
2026-04-30 07:01 53.64945 7.79743 2998 ft 147 kts 113°
2026-04-30 07:01 53.64549 7.81322 2977 ft 146 kts 113°
2026-04-30 07:01 53.64159 7.82874 3001 ft 143 kts 114°
2026-04-30 07:02 53.63771 7.84415 3002 ft 143 kts 113°
2026-04-30 07:02 53.63362 7.85935 2993 ft 143 kts 123°
2026-04-30 07:02 53.62643 7.87094 3001 ft 144 kts 139°
2026-04-30 07:02 53.61854 7.88139 3008 ft 146 kts 140°
2026-04-30 07:03 53.61008 7.89123 2998 ft 148 kts 147°
2026-04-30 07:03 53.60125 7.89985 2927 ft 147 kts 149°
2026-04-30 07:03 53.59172 7.90636 2802 ft 147 kts 158°
2026-04-30 07:03 53.58212 7.91185 2561 ft 148 kts 158°
2026-04-30 07:04 53.57229 7.91654 2268 ft 150 kts 174°
2026-04-30 07:04 53.56238 7.91035 2077 ft 157 kts 218°
2026-04-30 07:04 53.55769 7.89436 1999 ft 156 kts 261°
2026-04-30 07:04 53.55810 7.87647 1998 ft 152 kts 281°
2026-04-30 07:05 53.56446 7.84375 1916 ft 144 kts 276°
2026-04-30 07:05 53.56587 7.82704 1735 ft 145 kts 275°
2026-04-30 07:05 53.56565 7.81007 1536 ft 145 kts 257°
2026-04-30 07:06 53.56389 7.79350 1343 ft 143 kts 255°
2026-04-30 07:06 53.56198 7.77707 1161 ft 144 kts 254°
2026-04-30 07:06 53.55986 7.76064 961 ft 144 kts 252°
2026-04-30 07:06 53.55886 7.74386 743 ft 145 kts 263°
2026-04-30 07:07 53.55642 7.72797 519 ft 133 kts 251°
2026-04-30 07:07 53.55413 7.71340 321 ft 125 kts 252°
2026-04-30 07:07 53.55218 7.70034 219 ft 109 kts 251°
2026-04-30 07:07 53.55059 7.68856 96 ft 98 kts 255°
2026-04-30 07:08 53.54934 7.67864 29 ft 70 kts 255°
2026-04-30 07:08 53.54810 7.66928 81 ft 97 kts 257°
2026-04-30 07:08 53.54660 7.65721 231 ft 112 kts 252°
2026-04-30 07:08 53.54471 7.64401 435 ft 117 kts 252°
2026-04-30 07:09 53.54194 7.63122 694 ft 112 kts 226°
2026-04-30 07:09 53.53514 7.62823 912 ft 106 kts 164°
2026-04-30 07:09 53.52793 7.63113 1145 ft 102 kts 162°
2026-04-30 07:09 53.52105 7.63595 1075 ft 112 kts 135°
2026-04-30 07:10 53.51891 7.64799 1157 ft 113 kts 89°
2026-04-30 07:10 53.51981 7.66112 1161 ft 116 kts 83°
2026-04-30 07:10 53.52233 7.67429 1153 ft 121 kts 74°
2026-04-30 07:10 53.52554 7.68757 1077 ft 125 kts 73°
2026-04-30 07:11 53.52864 7.70099 1064 ft 122 kts 73°
2026-04-30 07:11 53.53151 7.71427 1081 ft 120 kts 78°
2026-04-30 07:11 53.53395 7.72786 1067 ft 121 kts 80°
2026-04-30 07:11 53.53929 7.73911 910 ft 137 kts 28°
2026-04-30 07:12 53.54886 7.73935 766 ft 140 kts 347°
2026-04-30 07:12 53.55740 7.73233 627 ft 137 kts 308°
2026-04-30 07:12 53.55819 7.71832 473 ft 120 kts 243°
2026-04-30 07:12 53.55447 7.70626 314 ft 115 kts 239°
2026-04-30 07:13 53.55134 7.69452 162 ft 105 kts 252°
2026-04-30 07:13 53.54989 7.68299 50 ft 94 kts 256°
2026-04-30 07:13 53.54878 7.67429 31 ft 68 kts 257°
2026-04-30 07:13 53.54752 7.66428 131 ft 99 kts 255°
2026-04-30 07:14 53.54593 7.65290 430 ft 102 kts 253°
2026-04-30 07:14 53.54358 7.64190 804 ft 98 kts 224°
2026-04-30 07:14 53.53730 7.63925 973 ft 100 kts 164°
2026-04-30 07:14 53.53011 7.64200 1102 ft 106 kts 159°
2026-04-30 07:15 53.52429 7.64919 1068 ft 111 kts 117°
2026-04-30 07:15 53.52465 7.66242 1023 ft 119 kts 80°
2026-04-30 07:15 53.52695 7.67523 1101 ft 111 kts 78°
2026-04-30 07:15 53.52939 7.68774 1067 ft 114 kts 78°
2026-04-30 07:16 53.53131 7.70051 1066 ft 112 kts 82°
2026-04-30 07:16 53.53327 7.71336 1059 ft 113 kts 82°
2026-04-30 07:16 53.53629 7.72523 1074 ft 118 kts 50°
2026-04-30 07:16 53.54437 7.72988 843 ft 124 kts 358°
2026-04-30 07:17 53.55228 7.72616 721 ft 116 kts 334°
2026-04-30 07:17 53.55490 7.71442 469 ft 116 kts 250°
2026-04-30 07:17 53.55065 7.68983 127 ft 105 kts 258°
2026-04-30 07:18 53.54941 7.67909 29 ft 78 kts 255°
2026-04-30 07:18 53.54821 7.66976 87 ft 96 kts 256°
2026-04-30 07:18 53.54724 7.66211 269 ft 102 kts 253°
2026-04-30 07:18 53.54553 7.65059 655 ft 103 kts 255°
2026-04-30 07:19 53.54163 7.64239 1002 ft 95 kts 190°
2026-04-30 07:19 53.53530 7.64461 1179 ft 98 kts 156°
2026-04-30 07:19 53.52992 7.65195 1180 ft 111 kts 115°
2026-04-30 07:19 53.53034 7.66526 1246 ft 115 kts 83°
2026-04-30 07:20 53.53099 7.67857 1289 ft 113 kts 109°
2026-04-30 07:20 53.52510 7.68719 1163 ft 126 kts 164°
2026-04-30 07:20 53.51657 7.68965 1206 ft 121 kts 167°
2026-04-30 07:20 53.50843 7.69175 1305 ft 118 kts 167°
2026-04-30 07:21 53.50021 7.69389 1299 ft 121 kts 167°
2026-04-30 07:21 53.49199 7.69618 1315 ft 122 kts 166°
2026-04-30 07:21 53.48365 7.69899 1358 ft 122 kts 164°
2026-04-30 07:21 53.47532 7.70197 1492 ft 126 kts 164°
2026-04-30 07:22 53.45886 7.70842 2136 ft 120 kts 160°
2026-04-30 07:22 53.45076 7.71210 2407 ft 120 kts 160°
2026-04-30 07:22 53.44277 7.71622 2681 ft 120 kts 155°
2026-04-30 07:23 53.43489 7.72124 2905 ft 124 kts 154°
2026-04-30 07:23 53.42638 7.72683 2907 ft 137 kts 154°
2026-04-30 07:23 53.41741 7.73271 2998 ft 139 kts 154°
2026-04-30 07:23 53.40807 7.73884 3000 ft 149 kts 154°
2026-04-30 07:24 53.40044 7.74981 2997 ft 147 kts 117°
2026-04-30 07:24 53.39970 7.76675 2995 ft 156 kts 77°
2026-04-30 07:24 53.40438 7.78334 3004 ft 158 kts 66°
2026-04-30 07:24 53.40973 7.79944 3003 ft 158 kts 65°
2026-04-30 07:25 53.41517 7.81550 3002 ft 158 kts 65°
2026-04-30 07:25 53.42063 7.83155 3001 ft 159 kts 66°
2026-04-30 07:25 53.42225 7.84902 3001 ft 152 kts 104°
2026-04-30 07:25 53.41843 7.86540 3007 ft 151 kts 112°
2026-04-30 07:26 53.41572 7.88241 2997 ft 153 kts 100°
2026-04-30 07:26 53.41483 7.90020 3004 ft 154 kts 95°
2026-04-30 07:26 53.41450 7.91815 2998 ft 154 kts 94°
2026-04-30 07:26 53.41417 7.93622 2996 ft 155 kts 95°
2026-04-30 07:27 53.41382 7.95420 2998 ft 153 kts 95°
2026-04-30 07:27 53.41351 7.97206 3002 ft 154 kts 95°
2026-04-30 07:27 53.41320 7.98996 2996 ft 153 kts 94°
2026-04-30 07:27 53.41290 8.00767 2997 ft 151 kts 95°
2026-04-30 07:28 53.41260 8.02530 3002 ft 151 kts 94°
2026-04-30 07:28 53.41228 8.04270 2998 ft 151 kts 95°
2026-04-30 07:28 53.41190 8.06068 3011 ft 154 kts 95°
2026-04-30 07:28 53.41152 8.07827 3005 ft 152 kts 94°
2026-04-30 07:29 53.41126 8.09596 3004 ft 151 kts 94°
2026-04-30 07:29 53.41094 8.11375 3005 ft 154 kts 95°
2026-04-30 07:29 53.41062 8.13181 3000 ft 155 kts 94°
2026-04-30 07:29 53.41028 8.14970 2998 ft 153 kts 95°
2026-04-30 07:30 53.40952 8.18524 3004 ft 152 kts 95°
2026-04-30 07:30 53.40918 8.20298 3004 ft 152 kts 95°
2026-04-30 07:30 53.40884 8.22072 3004 ft 152 kts 95°
2026-04-30 07:31 53.40848 8.23854 3004 ft 153 kts 95°
2026-04-30 07:31 53.40812 8.25629 3002 ft 152 kts 95°
2026-04-30 07:31 53.40776 8.27400 3007 ft 152 kts 95°
2026-04-30 07:31 53.40736 8.29174 3005 ft 152 kts 95°
2026-04-30 07:32 53.40704 8.30927 3015 ft 150 kts 95°
2026-04-30 07:32 53.40679 8.32633 3004 ft 146 kts 94°
2026-04-30 07:32 53.40650 8.34318 3006 ft 144 kts 95°
2026-04-30 07:32 53.40622 8.35987 3019 ft 143 kts 93°
2026-04-30 07:33 53.40599 8.37652 3021 ft 144 kts 94°
2026-04-30 07:33 53.40571 8.39359 3003 ft 147 kts 95°
2026-04-30 07:33 53.40538 8.41066 3004 ft 146 kts 95°
2026-04-30 07:33 53.40469 8.42747 3001 ft 143 kts 103°
2026-04-30 07:34 53.40190 8.44339 3010 ft 142 kts 115°
2026-04-30 07:34 53.39600 8.45648 3001 ft 142 kts 142°
2026-04-30 07:34 53.38692 8.46330 3009 ft 144 kts 156°
2026-04-30 07:34 53.37746 8.46872 3009 ft 144 kts 157°
2026-04-30 07:35 53.36806 8.47397 3011 ft 144 kts 158°
2026-04-30 07:35 53.35852 8.47927 3010 ft 144 kts 158°
2026-04-30 07:35 53.34887 8.48390 3015 ft 146 kts 165°
2026-04-30 07:35 53.33878 8.48662 3017 ft 148 kts 166°
2026-04-30 07:36 53.32859 8.48933 3008 ft 148 kts 166°
2026-04-30 07:36 53.31846 8.49186 3009 ft 147 kts 167°
2026-04-30 07:36 53.30838 8.49426 3007 ft 147 kts 168°
2026-04-30 07:36 53.29807 8.49263 3016 ft 150 kts 184°
2026-04-30 07:37 53.28778 8.48917 3016 ft 151 kts 185°
2026-04-30 07:37 53.27750 8.48562 3017 ft 151 kts 185°
2026-04-30 07:37 53.26720 8.48244 3016 ft 150 kts 182°
2026-04-30 07:37 53.25687 8.47980 3017 ft 150 kts 182°
2026-04-30 07:38 53.24668 8.47804 3026 ft 150 kts 175°
2026-04-30 07:38 53.23622 8.47846 3021 ft 150 kts 165°
2026-04-30 07:38 53.22656 8.48419 3018 ft 146 kts 150°
2026-04-30 07:38 53.21792 8.49275 3017 ft 143 kts 143°
2026-04-30 07:39 53.20969 8.50208 3018 ft 143 kts 143°
2026-04-30 07:39 53.20164 8.51171 3018 ft 142 kts 140°
2026-04-30 07:39 53.19417 8.52244 3019 ft 141 kts 136°
2026-04-30 07:39 53.18693 8.53342 3023 ft 140 kts 136°
2026-04-30 07:40 53.17984 8.54416 3009 ft 136 kts 135°
2026-04-30 07:40 53.17283 8.55487 2926 ft 137 kts 135°
2026-04-30 07:40 53.16592 8.56544 2844 ft 135 kts 135°
2026-04-30 07:40 53.15897 8.57596 2659 ft 135 kts 135°
2026-04-30 07:41 53.15203 8.58665 2386 ft 136 kts 136°
2026-04-30 07:41 53.14568 8.59837 2177 ft 137 kts 128°
2026-04-30 07:41 53.13977 8.61073 2075 ft 136 kts 129°
2026-04-30 07:41 53.13425 8.62326 2026 ft 131 kts 123°
2026-04-30 07:42 53.12976 8.63630 2030 ft 131 kts 118°
2026-04-30 07:42 53.12584 8.64995 2025 ft 128 kts 115°
2026-04-30 07:42 53.12214 8.66340 2028 ft 126 kts 111°
2026-04-30 07:42 53.11978 8.67722 2028 ft 120 kts 107°
2026-04-30 07:43 53.11768 8.69078 1915 ft 123 kts 107°
2026-04-30 07:43 53.11553 8.70449 1807 ft 125 kts 107°
2026-04-30 07:43 53.11339 8.71845 1757 ft 124 kts 107°
2026-04-30 07:43 53.11091 8.73206 1719 ft 119 kts 120°
2026-04-30 07:44 53.10510 8.74196 1573 ft 126 kts 143°
2026-04-30 07:44 53.09792 8.75048 1585 ft 124 kts 146°
2026-04-30 07:44 53.09067 8.75788 1527 ft 123 kts 149°
2026-04-30 07:44 53.08268 8.76339 1420 ft 126 kts 161°
2026-04-30 07:45 53.07448 8.76843 1329 ft 126 kts 144°
2026-04-30 07:45 53.07014 8.78084 1222 ft 132 kts 99°
2026-04-30 07:45 53.06921 8.79603 1110 ft 131 kts 101°
2026-04-30 07:45 53.06810 8.81072 1053 ft 129 kts 95°
2026-04-30 07:46 53.06831 8.82548 1009 ft 124 kts 89°
2026-04-30 07:46 53.06864 8.83826 1151 ft 105 kts 95°
2026-04-30 07:46 53.06485 8.84734 1064 ft 109 kts 156°
2026-04-30 07:46 53.05722 8.84711 943 ft 115 kts 188°
2026-04-30 07:47 53.05024 8.84196 725 ft 102 kts 227°
2026-04-30 07:47 53.04799 8.83128 486 ft 97 kts 254°
2026-04-30 07:47 53.04755 8.82052 286 ft 92 kts 264°
2026-04-30 07:47 53.04733 8.81021 132 ft 87 kts 265°
2026-04-30 07:48 53.04716 8.80052 21 ft 76 kts 264°
2026-04-30 07:48 53.04704 8.79414 15 ft 23 kts 271°
2026-04-30 07:48 53.04732 8.79301 14 ft 6 kts 348°
2026-04-30 07:48 53.04782 8.79293 14 ft 8 kts 358°
2026-04-30 07:49 53.04838 8.79286 16 ft 8 kts 348°
2026-04-30 07:49 53.04862 8.79201 15 ft 11 kts 268°
2026-04-30 07:49 53.04863 8.79052 12 ft 15 kts 260°
2026-04-30 07:49 53.04871 8.78894 11 ft 14 kts 309°
2026-04-30 07:50 53.04941 8.78810 11 ft 10 kts 349°
2026-04-30 07:50 53.05013 8.78801 11 ft 10 kts 344°
2026-04-30 07:50 53.05079 8.78778 13 ft 8 kts 360°
2026-04-30 07:50 53.05105 8.78765 14 ft 0 kts 312°